createdAt,value
2019-03-18T00:00:54.701Z,5.50
2019-03-18T00:03:26.122Z,5.47
2019-03-18T00:05:58.598Z,5.46
2019-03-18T00:08:29.419Z,5.42
2019-03-18T00:11:00.717Z,5.39
2019-03-18T00:13:31.344Z,5.39
2019-03-18T00:16:02.008Z,5.37
2019-03-18T00:18:33.019Z,5.34
2019-03-18T00:21:03.564Z,5.32
2019-03-18T00:23:34.181Z,5.29
2019-03-18T00:26:05.008Z,5.24
2019-03-18T00:28:35.832Z,5.21
2019-03-18T00:31:06.883Z,5.18
2019-03-18T00:33:37.746Z,5.15
2019-03-18T00:36:08.581Z,5.11
2019-03-18T00:38:39.173Z,5.09
2019-03-18T00:41:09.782Z,5.07
2019-03-18T00:43:40.395Z,5.07
2019-03-18T00:46:11.058Z,5.07
2019-03-18T00:48:41.702Z,5.04
2019-03-18T00:51:14.938Z,5.03
2019-03-18T00:53:45.427Z,5.03
2019-03-18T00:56:15.911Z,4.99
2019-03-18T00:58:46.323Z,4.94
2019-03-18T01:01:17.413Z,4.91
2019-03-18T01:03:48.462Z,4.90
2019-03-18T01:06:19.093Z,4.96
2019-03-18T01:08:49.780Z,5.03
2019-03-18T01:11:20.594Z,5.05
2019-03-18T01:13:51.078Z,5.09
2019-03-18T01:16:22.085Z,5.10
2019-03-18T01:18:52.514Z,5.09
2019-03-18T01:21:23.382Z,5.10
2019-03-18T01:23:53.718Z,5.11
2019-03-18T01:26:24.583Z,5.07
2019-03-18T01:28:54.985Z,5.06
2019-03-18T01:31:25.334Z,5.07
2019-03-18T01:33:55.984Z,5.07
2019-03-18T01:36:26.865Z,5.04
2019-03-18T01:38:57.839Z,5.04
2019-03-18T01:41:28.888Z,5.02
2019-03-18T01:44:00.552Z,5.00
2019-03-18T01:46:31.223Z,4.99
2019-03-18T01:49:01.548Z,4.97
2019-03-18T01:51:31.969Z,4.99
2019-03-18T01:54:02.681Z,4.95
2019-03-18T01:56:33.865Z,4.91
2019-03-18T01:59:04.318Z,4.90
2019-03-18T02:01:35.340Z,4.88
2019-03-18T02:04:06.697Z,4.84
2019-03-18T02:06:37.114Z,4.84
2019-03-18T02:09:07.534Z,4.81
2019-03-18T02:11:37.861Z,4.79
2019-03-18T02:14:08.474Z,4.76
2019-03-18T02:16:38.866Z,4.73
2019-03-18T02:19:09.505Z,4.71
2019-03-18T02:21:39.918Z,4.70
2019-03-18T02:24:10.850Z,4.72
2019-03-18T02:26:41.348Z,4.70
2019-03-18T02:29:11.715Z,4.68
2019-03-18T02:31:42.120Z,4.67
2019-03-18T02:34:13.283Z,4.63
2019-03-18T02:36:43.981Z,4.62
2019-03-18T02:39:14.765Z,4.61
2019-03-18T02:41:45.482Z,4.60
2019-03-18T02:44:16.232Z,4.61
2019-03-18T02:46:46.947Z,4.64
2019-03-18T02:49:17.959Z,4.73
2019-03-18T02:51:52.654Z,4.71
2019-03-18T02:54:20.764Z,4.64
2019-03-18T02:56:51.298Z,4.64
2019-03-18T02:59:21.616Z,4.64
2019-03-18T03:01:53.058Z,4.61
2019-03-18T03:04:23.382Z,4.59
2019-03-18T03:06:53.774Z,4.52
2019-03-18T03:09:24.860Z,4.49
2019-03-18T03:11:55.260Z,4.45
2019-03-18T03:14:25.645Z,4.46
2019-03-18T03:16:56.188Z,4.46
2019-03-18T03:19:27.679Z,4.48
2019-03-18T03:21:58.207Z,4.47
2019-03-18T03:24:28.844Z,4.44
2019-03-18T03:26:59.451Z,4.40
2019-03-18T03:29:30.013Z,4.40
2019-03-18T03:32:00.649Z,4.38
2019-03-18T03:34:31.314Z,4.39
2019-03-18T03:37:01.936Z,4.40
2019-03-18T03:39:32.551Z,4.41
2019-03-18T03:42:03.608Z,4.40
2019-03-18T03:44:34.414Z,4.44
2019-03-18T03:47:05.031Z,4.42
2019-03-18T03:49:35.595Z,4.45
2019-03-18T03:52:06.414Z,4.42
2019-03-18T03:54:36.962Z,4.40
2019-03-18T03:57:07.885Z,4.40
2019-03-18T03:59:38.522Z,4.36
2019-03-18T04:02:09.105Z,4.35
2019-03-18T04:04:39.889Z,4.29
2019-03-18T04:07:10.478Z,4.30
2019-03-18T04:09:42.507Z,4.29
2019-03-18T04:12:13.336Z,4.28
2019-03-18T04:14:43.820Z,4.26
2019-03-18T04:17:14.330Z,4.26
2019-03-18T04:19:44.722Z,4.23
2019-03-18T04:22:15.149Z,4.20
2019-03-18T04:24:46.051Z,4.14
2019-03-18T04:27:17.491Z,4.07
2019-03-18T04:29:48.002Z,4.04
2019-03-18T04:32:18.862Z,4.06
2019-03-18T04:34:49.352Z,4.07
2019-03-18T04:37:19.842Z,4.08
2019-03-18T04:39:50.308Z,4.09
2019-03-18T04:42:21.673Z,4.07
2019-03-18T04:44:52.103Z,4.00
2019-03-18T04:47:23.821Z,3.93
2019-03-18T04:49:54.618Z,3.92
2019-03-18T04:52:25.389Z,3.87
2019-03-18T04:54:55.962Z,3.91
2019-03-18T04:57:27.747Z,3.88
2019-03-18T05:00:00.878Z,3.85
2019-03-18T05:02:31.337Z,3.83
2019-03-18T05:05:02.175Z,3.87
2019-03-18T05:07:32.928Z,3.84
2019-03-18T05:10:04.668Z,3.82
2019-03-18T05:12:35.025Z,3.89
2019-03-18T05:15:07.956Z,3.87
2019-03-18T05:17:38.277Z,3.88
2019-03-18T05:20:10.138Z,3.88
2019-03-18T05:22:40.702Z,3.93
2019-03-18T05:25:11.090Z,3.98
2019-03-18T05:27:41.695Z,4.01
2019-03-18T05:30:14.147Z,4.05
2019-03-18T05:32:44.490Z,4.03
2019-03-18T05:35:16.124Z,4.12
2019-03-18T05:37:46.490Z,4.14
2019-03-18T05:40:16.809Z,4.20
2019-03-18T05:42:47.229Z,4.28
2019-03-18T05:45:18.176Z,4.43
2019-03-18T05:47:48.839Z,4.46
2019-03-18T05:50:19.333Z,4.49
2019-03-18T05:52:50.019Z,4.51
2019-03-18T05:55:22.201Z,4.62
2019-03-18T05:57:52.844Z,4.73
2019-03-18T06:00:23.727Z,4.77
2019-03-18T06:02:54.096Z,4.90
2019-03-18T06:05:24.456Z,4.98
2019-03-18T06:07:55.518Z,5.03
2019-03-18T06:10:25.989Z,5.12
2019-03-18T06:12:56.460Z,5.10
2019-03-18T06:15:26.886Z,5.19
2019-03-18T06:17:57.406Z,5.26
2019-03-18T06:20:28.175Z,5.36
2019-03-18T06:23:01.598Z,5.45
2019-03-18T06:25:32.401Z,5.48
2019-03-18T06:28:03.113Z,5.53
2019-03-18T06:30:34.549Z,5.59
2019-03-18T06:33:05.377Z,5.67
2019-03-18T06:35:35.972Z,5.69
2019-03-18T06:38:06.391Z,5.78
2019-03-18T06:40:37.098Z,5.82
2019-03-18T06:43:07.696Z,5.84
2019-03-18T06:45:38.480Z,5.81
2019-03-18T06:48:09.388Z,5.81
2019-03-18T06:50:40.089Z,5.92
2019-03-18T06:53:10.888Z,6.08
2019-03-18T06:55:43.056Z,6.25
2019-03-18T06:58:14.274Z,6.43
2019-03-18T07:00:44.946Z,6.59
2019-03-18T07:03:15.647Z,6.61
2019-03-18T07:05:46.405Z,6.55
2019-03-18T07:08:17.017Z,6.73
2019-03-18T07:10:47.951Z,7.26
2019-03-18T07:13:18.884Z,8.23
2019-03-18T07:15:50.107Z,7.91
2019-03-18T07:18:24.259Z,8.28
2019-03-18T07:20:55.234Z,9.02
2019-03-18T07:23:26.282Z,8.80
2019-03-18T07:25:57.259Z,9.67
2019-03-18T07:28:28.339Z,10.33
2019-03-18T07:30:58.968Z,8.83
2019-03-18T07:33:30.356Z,8.18
2019-03-18T07:36:00.833Z,7.74
2019-03-18T07:38:31.322Z,7.38
2019-03-18T07:41:02.329Z,7.74
2019-03-18T07:43:33.358Z,8.38
2019-03-18T07:46:03.790Z,7.69
2019-03-18T07:48:34.286Z,7.99
2019-03-18T07:51:05.269Z,8.23
2019-03-18T07:53:35.675Z,7.36
2019-03-18T07:56:06.338Z,7.25
2019-03-18T07:58:37.414Z,7.04
2019-03-18T08:01:07.975Z,6.87
2019-03-18T08:03:38.390Z,7.67
2019-03-18T08:06:09.875Z,8.17
2019-03-18T08:08:41.464Z,8.32
2019-03-18T08:11:12.101Z,8.75
2019-03-18T08:13:42.610Z,7.91
2019-03-18T08:16:13.170Z,8.36
2019-03-18T08:18:44.347Z,7.50
2019-03-18T08:21:14.699Z,7.93
2019-03-18T08:23:45.470Z,7.84
2019-03-18T08:26:16.360Z,7.59
2019-03-18T08:28:47.115Z,8.14
2019-03-18T08:31:17.843Z,8.15
2019-03-18T08:33:48.536Z,7.63
2019-03-18T08:36:19.130Z,7.46
2019-03-18T08:38:49.851Z,7.51
2019-03-18T08:41:21.587Z,7.20
2019-03-18T08:43:52.082Z,7.19
2019-03-18T08:46:22.670Z,7.28
2019-03-18T08:48:55.932Z,7.36
2019-03-18T08:51:25.906Z,7.97
2019-03-18T08:53:57.024Z,8.57
2019-03-18T08:56:29.690Z,9.17
2019-03-18T08:58:59.798Z,8.29
2019-03-18T09:01:30.482Z,8.12
2019-03-18T09:04:01.719Z,8.40
2019-03-18T09:06:32.222Z,7.71
2019-03-18T09:09:02.804Z,7.83
2019-03-18T09:11:33.482Z,7.56
2019-03-18T09:14:04.075Z,7.19
2019-03-18T09:16:35.851Z,6.97
2019-03-18T09:19:08.879Z,6.88
2019-03-18T09:21:39.377Z,6.88
2019-03-18T09:24:10.242Z,6.95
2019-03-18T09:26:41.407Z,6.89
2019-03-18T09:29:12.215Z,6.79
2019-03-18T09:31:45.229Z,6.82
2019-03-18T09:34:15.937Z,6.88
2019-03-18T09:36:46.510Z,7.10
2019-03-18T09:39:17.171Z,7.40
2019-03-18T09:41:47.771Z,8.26
2019-03-18T09:44:18.276Z,8.65
2019-03-18T09:46:49.697Z,8.04
2019-03-18T09:49:22.010Z,7.86
2019-03-18T09:51:52.460Z,7.97
2019-03-18T09:54:23.202Z,7.72
2019-03-18T09:56:53.918Z,7.69
2019-03-18T09:59:24.924Z,7.76
2019-03-18T10:01:55.251Z,7.79
2019-03-18T10:04:25.595Z,7.72
2019-03-18T10:06:57.390Z,7.63
2019-03-18T10:09:27.974Z,8.01
2019-03-18T10:11:58.853Z,8.51
2019-03-18T10:14:29.451Z,9.14
2019-03-18T10:17:09.150Z,8.71
2019-03-18T10:19:33.755Z,8.31
2019-03-18T10:22:04.907Z,8.38
2019-03-18T10:24:35.690Z,7.89
2019-03-18T10:27:06.429Z,7.95
2019-03-18T10:29:37.143Z,7.74
2019-03-18T10:32:07.520Z,7.67
2019-03-18T10:34:38.033Z,7.46
2019-03-18T10:37:08.933Z,7.21
2019-03-18T10:39:39.482Z,7.17
2019-03-18T10:42:09.967Z,7.15
2019-03-18T10:44:40.861Z,7.16
2019-03-18T10:47:11.205Z,7.13
2019-03-18T10:49:46.418Z,7.22
2019-03-18T10:52:14.483Z,7.26
2019-03-18T10:54:45.165Z,7.53
2019-03-18T10:57:15.605Z,7.90
2019-03-18T10:59:46.228Z,7.99
2019-03-18T11:02:16.835Z,8.21
2019-03-18T11:04:47.519Z,8.17
2019-03-18T11:07:17.875Z,8.10
2019-03-18T11:09:48.408Z,8.02
2019-03-18T11:12:19.105Z,8.39
2019-03-18T11:14:49.583Z,8.72
2019-03-18T11:17:19.990Z,9.51
2019-03-18T11:19:58.417Z,9.08
2019-03-18T11:22:22.905Z,9.28
2019-03-18T11:24:53.388Z,9.33
2019-03-18T11:27:24.058Z,8.97
2019-03-18T11:29:54.591Z,9.48
2019-03-18T11:32:25.338Z,9.41
2019-03-18T11:34:56.051Z,9.06
2019-03-18T11:37:26.652Z,8.78
2019-03-18T11:39:57.352Z,10.39
2019-03-18T11:42:28.476Z,10.26
2019-03-18T11:44:59.192Z,9.83
2019-03-18T11:47:31.295Z,9.55
2019-03-18T11:50:10.961Z,9.02
2019-03-18T11:52:34.461Z,10.55
2019-03-18T11:55:10.090Z,11.34
2019-03-18T11:57:42.082Z,10.57
2019-03-18T12:00:14.958Z,9.91
2019-03-18T12:02:45.676Z,10.07
2019-03-18T12:05:27.634Z,9.99
2019-03-18T12:07:58.445Z,10.15
2019-03-18T12:10:28.960Z,9.71
2019-03-18T12:12:59.793Z,9.49
2019-03-18T12:15:31.271Z,9.16
2019-03-18T12:18:02.136Z,8.96
2019-03-18T12:20:33.258Z,9.05
2019-03-18T12:23:04.108Z,8.95
2019-03-18T12:25:34.629Z,8.84
2019-03-18T12:28:05.649Z,8.74
2019-03-18T12:30:36.141Z,8.83
2019-03-18T12:33:06.910Z,8.73
2019-03-18T12:35:37.524Z,8.82
2019-03-18T12:38:08.005Z,8.95
2019-03-18T12:40:38.452Z,9.03
2019-03-18T12:43:09.012Z,9.01
2019-03-18T12:45:39.459Z,9.09
2019-03-18T12:48:10.021Z,9.17
2019-03-18T12:50:55.133Z,9.26
2019-03-18T12:53:13.448Z,9.24
2019-03-18T12:55:44.177Z,9.19
2019-03-18T12:58:14.752Z,9.53
2019-03-18T13:00:45.647Z,9.72
2019-03-18T13:03:16.400Z,9.82
2019-03-18T13:05:46.922Z,10.11
2019-03-18T13:08:17.478Z,10.17
2019-03-18T13:10:47.993Z,9.82
2019-03-18T13:13:19.091Z,9.42
2019-03-18T13:15:50.116Z,9.37
2019-03-18T13:18:20.528Z,9.26
2019-03-18T13:20:51.013Z,9.21
2019-03-18T13:23:21.703Z,9.13
2019-03-18T13:25:52.350Z,8.90
2019-03-18T13:28:22.854Z,8.68
2019-03-18T13:30:53.400Z,8.71
2019-03-18T13:33:24.791Z,8.58
2019-03-18T13:35:55.193Z,8.56
2019-03-18T13:38:27.190Z,8.48
2019-03-18T13:40:57.843Z,8.50
2019-03-18T13:43:28.515Z,8.42
2019-03-18T13:45:58.856Z,8.36
2019-03-18T13:48:29.339Z,8.33
2019-03-18T13:50:59.842Z,8.32
2019-03-18T13:53:30.276Z,8.23
2019-03-18T13:56:00.926Z,8.32
2019-03-18T13:58:31.749Z,8.49
2019-03-18T14:01:02.389Z,8.43
2019-03-18T14:03:32.741Z,8.44
2019-03-18T14:06:03.424Z,8.31
2019-03-18T14:08:33.867Z,8.36
2019-03-18T14:11:04.342Z,8.29
2019-03-18T14:13:35.011Z,8.39
2019-03-18T14:16:05.800Z,8.39
2019-03-18T14:18:36.243Z,8.33
2019-03-18T14:21:06.721Z,8.46
2019-03-18T14:23:37.335Z,8.52
2019-03-18T14:26:08.001Z,8.62
2019-03-18T14:28:39.582Z,8.57
2019-03-18T14:31:10.109Z,8.54
2019-03-18T14:33:41.679Z,8.56
2019-03-18T14:36:12.417Z,8.58
2019-03-18T14:38:42.832Z,8.50
2019-03-18T14:41:13.451Z,8.47
2019-03-18T14:43:46.474Z,8.59
2019-03-18T14:46:16.041Z,8.66
2019-03-18T14:48:46.827Z,8.60
2019-03-18T14:51:17.551Z,8.69
2019-03-18T14:53:48.642Z,8.79
2019-03-18T14:56:21.440Z,8.96
2019-03-18T14:58:51.936Z,8.77
2019-03-18T15:01:23.997Z,8.71
2019-03-18T15:03:55.080Z,8.83
2019-03-18T15:06:27.406Z,8.87
2019-03-18T15:08:57.835Z,9.03
2019-03-18T15:11:28.635Z,9.14
2019-03-18T15:14:00.159Z,9.09
2019-03-18T15:16:31.242Z,9.01
2019-03-18T15:19:01.983Z,9.01
2019-03-18T15:21:32.591Z,9.17
2019-03-18T15:24:03.486Z,9.20
2019-03-18T15:26:34.239Z,9.16
2019-03-18T15:29:06.498Z,9.36
2019-03-18T15:31:37.226Z,9.35
2019-03-18T15:34:07.810Z,9.26
2019-03-18T15:36:39.547Z,9.38
2019-03-18T15:39:10.661Z,9.52
2019-03-18T15:41:41.074Z,9.67
2019-03-18T15:44:11.475Z,9.87
2019-03-18T15:46:42.959Z,9.97
2019-03-18T15:49:13.390Z,9.79
2019-03-18T15:51:43.883Z,9.52
2019-03-18T15:54:14.326Z,9.42
2019-03-18T15:56:46.114Z,9.42
2019-03-18T15:59:16.614Z,9.31
2019-03-18T16:01:47.169Z,9.24
2019-03-18T16:04:17.961Z,8.97
2019-03-18T16:06:48.302Z,8.90
2019-03-18T16:09:18.731Z,8.71
2019-03-18T16:11:50.196Z,8.50
2019-03-18T16:14:21.028Z,8.36
2019-03-18T16:17:01.400Z,8.26
2019-03-18T16:19:23.859Z,8.15
2019-03-18T16:21:57.941Z,8.07
2019-03-18T16:24:28.847Z,8.02
2019-03-18T16:26:59.663Z,7.98
2019-03-18T16:29:30.810Z,7.92
2019-03-18T16:32:10.767Z,7.88
2019-03-18T16:34:36.092Z,7.82
2019-03-18T16:37:06.596Z,7.75
2019-03-18T16:39:40.050Z,7.71
2019-03-18T16:42:10.751Z,7.71
2019-03-18T16:44:41.246Z,7.67
2019-03-18T16:47:12.050Z,7.69
2019-03-18T16:49:42.388Z,7.68
2019-03-18T16:52:13.859Z,7.69
2019-03-18T16:54:45.065Z,7.69
2019-03-18T16:57:17.032Z,7.67
2019-03-18T16:59:47.659Z,7.67
2019-03-18T17:02:20.634Z,7.63
2019-03-18T17:04:51.276Z,7.60
2019-03-18T17:07:24.769Z,7.54
2019-03-18T17:09:56.726Z,7.47
2019-03-18T17:12:29.963Z,7.43
2019-03-18T17:15:00.430Z,7.36
2019-03-18T17:17:31.249Z,7.31
2019-03-18T17:20:01.678Z,7.18
2019-03-18T17:22:32.196Z,7.10
2019-03-18T17:25:03.010Z,7.07
2019-03-18T17:27:34.427Z,6.91
2019-03-18T17:30:08.462Z,6.85
2019-03-18T17:32:40.172Z,6.76
2019-03-18T17:35:10.659Z,6.70
2019-03-18T17:37:41.283Z,6.62
2019-03-18T17:40:19.393Z,6.56
2019-03-18T17:42:49.829Z,6.50
2019-03-18T17:45:20.367Z,6.43
2019-03-18T17:47:50.938Z,6.42
2019-03-18T17:50:25.083Z,6.54
2019-03-18T17:53:03.026Z,6.53
2019-03-18T17:55:31.018Z,6.52
2019-03-18T17:58:01.539Z,6.47
2019-03-18T18:00:36.400Z,6.45
2019-03-18T18:03:06.828Z,6.44
2019-03-18T18:05:38.737Z,6.40
2019-03-18T18:08:09.369Z,6.35
2019-03-18T18:10:42.058Z,6.32
2019-03-18T18:13:12.562Z,6.27
2019-03-18T18:15:43.226Z,6.23
2019-03-18T18:18:15.029Z,6.23
2019-03-18T18:20:46.127Z,6.23
2019-03-18T18:23:18.046Z,6.17
2019-03-18T18:25:48.798Z,6.16
2019-03-18T18:28:19.437Z,6.08
2019-03-18T18:30:50.070Z,5.98
2019-03-18T18:33:22.167Z,5.92
2019-03-18T18:35:52.553Z,5.81
2019-03-18T18:38:24.293Z,5.72
2019-03-18T18:40:56.799Z,5.72
2019-03-18T18:43:27.203Z,5.81
2019-03-18T18:45:57.823Z,5.74
2019-03-18T18:48:28.670Z,5.66
2019-03-18T18:51:00.761Z,5.68
2019-03-18T18:53:30.958Z,5.69
2019-03-18T18:56:01.443Z,5.67
2019-03-18T18:58:32.060Z,5.60
2019-03-18T19:01:02.703Z,5.61
2019-03-18T19:03:33.176Z,5.61
2019-03-18T19:06:03.506Z,5.59
2019-03-18T19:08:34.244Z,5.52
2019-03-18T19:11:04.748Z,5.45
2019-03-18T19:13:35.435Z,5.44
2019-03-18T19:16:05.892Z,5.36
2019-03-18T19:18:38.011Z,5.39
2019-03-18T19:21:10.007Z,5.35
2019-03-18T19:23:40.783Z,5.45
2019-03-18T19:26:11.567Z,5.39
2019-03-18T19:28:43.349Z,5.47
2019-03-18T19:31:13.804Z,5.42
2019-03-18T19:33:44.670Z,5.45
2019-03-18T19:36:17.299Z,5.47
2019-03-18T19:38:48.866Z,5.50
2019-03-18T19:41:21.558Z,5.48
2019-03-18T19:43:52.406Z,5.50
2019-03-18T19:46:25.024Z,5.54
2019-03-18T19:48:55.572Z,5.41
2019-03-18T19:51:27.853Z,5.31
2019-03-18T19:53:58.489Z,5.29
2019-03-18T19:56:29.895Z,5.25
2019-03-18T19:59:00.321Z,5.15
2019-03-18T20:01:31.431Z,5.14
2019-03-18T20:04:02.049Z,5.14
2019-03-18T20:06:32.678Z,5.14
2019-03-18T20:09:04.453Z,5.13
2019-03-18T20:11:35.006Z,5.18
2019-03-18T20:14:06.445Z,5.22
2019-03-18T20:16:39.838Z,5.24
2019-03-18T20:19:10.423Z,5.18
2019-03-18T20:21:40.826Z,5.11
2019-03-18T20:24:11.660Z,5.12
2019-03-18T20:26:42.295Z,5.14
2019-03-18T20:29:13.058Z,5.16
2019-03-18T20:31:45.838Z,5.16
2019-03-18T20:34:17.928Z,5.17
2019-03-18T20:36:48.416Z,5.14
2019-03-18T20:39:19.077Z,5.12
2019-03-18T20:41:49.688Z,5.07
2019-03-18T20:44:20.154Z,5.06
2019-03-18T20:46:51.238Z,5.03
2019-03-18T20:49:21.860Z,5.04
2019-03-18T20:51:54.070Z,5.05
2019-03-18T20:54:24.751Z,5.08
2019-03-18T20:56:55.761Z,5.06
2019-03-18T20:59:27.702Z,5.04
2019-03-18T21:01:58.279Z,5.00
2019-03-18T21:04:30.123Z,5.01
2019-03-18T21:07:00.671Z,5.00
2019-03-18T21:09:31.243Z,5.04
2019-03-18T21:12:01.832Z,5.00
2019-03-18T21:14:32.883Z,4.92
2019-03-18T21:17:03.247Z,4.83
2019-03-18T21:19:33.690Z,4.74
2019-03-18T21:22:04.038Z,4.69
2019-03-18T21:24:36.171Z,4.60
2019-03-18T21:27:08.077Z,4.50
2019-03-18T21:29:38.516Z,4.48
2019-03-18T21:32:08.898Z,4.40
2019-03-18T21:34:39.468Z,4.33
2019-03-18T21:37:10.078Z,4.22
2019-03-18T21:39:40.461Z,4.17
2019-03-18T21:42:12.306Z,4.13
2019-03-18T21:44:44.785Z,4.10
2019-03-18T21:47:15.963Z,4.03
2019-03-18T21:49:46.642Z,3.94
2019-03-18T21:52:21.806Z,3.84
2019-03-18T21:54:52.726Z,3.79
2019-03-18T21:57:23.561Z,3.79
2019-03-18T21:59:54.323Z,3.90
2019-03-18T22:02:24.801Z,3.95
2019-03-18T22:04:55.357Z,3.95
2019-03-18T22:07:26.249Z,3.84
2019-03-18T22:09:56.693Z,3.80
2019-03-18T22:12:27.208Z,3.73
2019-03-18T22:14:59.206Z,3.69
2019-03-18T22:17:29.666Z,3.73
2019-03-18T22:20:00.357Z,3.75
2019-03-18T22:22:31.073Z,3.64
2019-03-18T22:25:03.630Z,3.63
2019-03-18T22:27:34.974Z,3.57
2019-03-18T22:30:07.964Z,3.52
2019-03-18T22:32:38.557Z,3.47
2019-03-18T22:35:09.355Z,3.42
2019-03-18T22:37:40.002Z,3.42
2019-03-18T22:40:11.763Z,3.52
2019-03-18T22:42:42.346Z,3.65
2019-03-18T22:45:13.825Z,3.79
2019-03-18T22:47:44.536Z,3.88
2019-03-18T22:50:16.992Z,3.94
2019-03-18T22:52:47.611Z,4.02
2019-03-18T22:55:18.024Z,4.08
2019-03-18T22:57:48.521Z,4.12
2019-03-18T23:00:21.510Z,4.13
2019-03-18T23:02:53.589Z,4.15
2019-03-18T23:05:24.274Z,4.15
2019-03-18T23:07:54.897Z,4.08
2019-03-18T23:10:25.376Z,3.95
2019-03-18T23:12:56.300Z,3.90
2019-03-18T23:15:26.660Z,3.84
2019-03-18T23:17:57.062Z,3.76
2019-03-18T23:20:27.623Z,3.72
2019-03-18T23:22:58.443Z,3.68
2019-03-18T23:25:29.066Z,3.60
2019-03-18T23:27:59.760Z,3.46
2019-03-18T23:30:30.313Z,3.39
2019-03-18T23:33:00.934Z,3.29
2019-03-18T23:35:31.356Z,3.21
2019-03-18T23:38:01.826Z,3.14
2019-03-18T23:40:32.386Z,3.03
2019-03-18T23:43:03.096Z,2.98
2019-03-18T23:45:33.594Z,2.86
2019-03-18T23:48:04.033Z,2.73
2019-03-18T23:50:34.791Z,2.65
2019-03-18T23:53:05.478Z,2.57
2019-03-18T23:55:36.103Z,2.52
2019-03-18T23:58:06.699Z,2.54
